Messwerte Traverse City

Temperatur

Temperatur
°C
1579464000 15.00 15.00 -4
1579467600 16.00 16.00 -4
1579471200 17.00 17.00 -3
1579474800 18.00 18.00 -3
1579478400 19.00 19.00 -4
1579482000 20.00 20.00 -4
1579485600 21.00 21.00
1579489200 22.00 22.00 -4
1579492800 23.00 23.00 -4
1579496400 0.00 0.00 -4
1579500000 1.00 1.00 -4
1579503600 2.00 2.00 -4
1579507200 3.00 3.00 -4
1579510800 4.00 4.00
1579514400 5.00 5.00 -4
1579518000 6.00 6.00 -4
1579521600 7.00 7.00 -5
1579525200 8.00 8.00 -4
1579528800 9.00 9.00 -4
1579532400 10.00 10.00 -4
1579536000 11.00 11.00 -4
1579539600 12.00 12.00 -4
1579543200 13.00 13.00 -4
1579546800 14.00 14.00 -4

Aktuellste Messwerte

Wettercharakter
Wetter: bedeckt, etwas Schnee
Temperatur
-3 °C
Feuchtigkeit
60 %
Wind
15 km/hWindrichtung: Nordwest
Luftdruck
1034 hPa
Messzeit: 20. Januar 2020, 15.00Datenquelle: METAR

Weitere Messstationen in der Nähe

Messstation Temperatur Entfernung
Bellaire -4 °C 40 km
Frankfort -4 °C 50 km
Cadillac / Wexford County -5 °C 53 km
Charlevoix -4 °C 67 km
Manistee -3 °C 74 km
Gaylord -6 °C 76 km
Houghton -6 °C 82 km

Wind

Windrichtung Böen Mittelwind
° km/h km/h
1579464000 15.00 14.00 - 15.00 350° 30 20
1579467600 16.00 15.00 - 16.00 340° 15
1579471200 17.00 16.00 - 17.00 350° 35 15
1579474800 18.00 17.00 - 18.00 350° 35 20
1579478400 19.00 18.00 - 19.00 340° 40 25
1579482000 20.00 19.00 - 20.00 340° 35 25
1579485600 21.00 20.00 - 21.00
1579489200 22.00 21.00 - 22.00 360° 35 15
1579492800 23.00 22.00 - 23.00 350° 15
1579496400 0.00 23.00 - 0.00 350° 30 20
1579500000 1.00 0.00 - 1.00 360° 15
1579503600 2.00 1.00 - 2.00 350° 10
1579507200 3.00 2.00 - 3.00 340° 30 20
1579510800 4.00 3.00 - 4.00
1579514400 5.00 4.00 - 5.00 350° 10
1579518000 6.00 5.00 - 6.00 340° 10
1579521600 7.00 6.00 - 7.00 290° 5
1579525200 8.00 7.00 - 8.00 300° 10
1579528800 9.00 8.00 - 9.00 290° 15
1579532400 10.00 9.00 - 10.00 290° 15
1579536000 11.00 10.00 - 11.00 320° 20
1579539600 12.00 11.00 - 12.00 310° 15
1579543200 13.00 12.00 - 13.00 290° 20
1579546800 14.00 13.00 - 14.00 310° 20

Ihre Wetterstation

Fehlt Ihre Wetterstation auf unserem Portal?

Schreiben Sie an network@meteonews.ch

Klima

Wann ist es am wärmsten? Wann regnet es am wenigsten? Unsere Klimadaten geben Auskunft.